Startpagina
METAR-TAF:

METAR-TAF

Vliegvelden :

Luchthaven Kabul

Kabul, Afghanistan

breedte: 34-38N, lengte: 069-12E, hoogte: 1789 m

Actueel weer

Dit bericht is 32 minuten geleden gemaakt, om 01:50 UTC
Wind 3 kt uit het zuiden
Temperatuur 23°C
Vochtigheid 61%
Druk 1011 hPa
Zicht: 9000 m

METAR: OAKB 210150Z 19003KT 9000 NSC 23/15 Q1011 NOSIG RMK A2987 BLU BLU

Tijdstip: 06:52 (02:22 UTC)

Verwachting

Dit bericht is 3 uur en het 17 minuten geleden gemaakt, om 23:05 UTC
Verwachting geldig van 21 om 00 UTC tot 21 om 24 UTC
Wind 2 kt uit variabele richting
Zicht 10 km of meer
geen wolken onder 1500 m en geen cumulonimbus
Wijzigt naar
van 21 om 08 UTC tot 21 om 10 UTC
Wind 10 kt uit het noordnoordoosten
Kans 30% :
Tijdelijke
van 21 om 11 UTC tot 21 om 15 UTC
Wind 12 kt uit het oosten met uitschieters tot 22 kt

TAF: OAKB 202305Z 2100/2124 VRB02KT CAVOK BECMG 2108/2110 02010KT PROB30 TEMPO 2111/2115 09012G22KT

Waarnemingen en weersverwachtingen van meer dan 4000 vliegvelden (METAR en TAF).

De beschikbare stations zijn de gele en rode punten op de kaart.

Ga met uw muis naar het station om de naam te zien.

Klik dan om waarnemingen en weersverwachtingen te zien.

kaart wijzigen: klik op de groene knoppen met een zwart kruis om in te zoomen, op de groene knop met een streepje om uit te zoomen of op de groene pijlen voor aangrenzende kaarten.


METAR-TAF: